Time;durP1;ratioP1;P1;durP2;ratioP2;P2;SDS_P1;SDS_P2;PMS_P1;PMS_P2;Temp;Humidity;BMP_temperature;BMP_pressure;BME280_temperature;BME280_humidity;BME280_pressure;Samples;Min_cycle;Max_cycle;Signal;HPM_P1;HPM_P2
2022/09/25 00:01:13;;;;;;;34.58;8.45;;;10.20;99.90;;;;;;5019044;28;20041;-39
2022/09/25 00:03:39;;;;;;;6.18;5.10;;;10.10;99.90;;;;;;5019100;28;20088;-39
2022/09/25 00:06:20;;;;;;;12.27;4.40;;;10.10;99.90;;;;;;5016776;28;20029;-37
2022/09/25 00:08:46;;;;;;;8.15;4.35;;;10.20;99.90;;;;;;5019970;28;20079;-40
2022/09/25 00:11:23;;;;;;;11.95;4.75;;;10.10;99.90;;;;;;5021104;28;20037;-38
2022/09/25 00:13:49;;;;;;;5.13;4.15;;;10.00;99.90;;;;;;5017690;28;20033;-41
2022/09/25 00:16:23;;;;;;;4.97;4.47;;;10.00;99.90;;;;;;5013477;28;20467;-41
2022/09/25 00:21:35;;;;;;;4.57;4.18;;;10.10;99.90;;;;;;5019425;28;20056;-41
2022/09/25 00:24:05;;;;;;;7.82;5.22;;;10.00;99.90;;;;;;5017522;28;20083;-43
2022/09/25 00:26:33;;;;;;;9.45;4.07;;;9.90;99.90;;;;;;5018564;28;20582;-40
2022/09/25 00:29:00;;;;;;;6.07;5.00;;;10.00;99.90;;;;;;5017733;28;20117;-40
2022/09/25 00:31:26;;;;;;;4.97;3.97;;;9.90;99.90;;;;;;5021620;28;20029;-38
2022/09/25 00:33:55;;;;;;;4.30;3.90;;;10.00;99.90;;;;;;5016624;28;20029;-42
2022/09/25 00:36:21;;;;;;;4.68;4.00;;;10.10;99.90;;;;;;5019125;28;20193;-41
2022/09/25 00:38:47;;;;;;;6.03;3.85;;;10.10;99.90;;;;;;5018865;28;20041;-41
2022/09/25 00:41:15;;;;;;;9.63;4.22;;;10.20;99.90;;;;;;5019496;28;20505;-35
2022/09/25 00:43:49;;;;;;;4.32;3.90;;;10.20;99.90;;;;;;5019986;28;20597;-40
2022/09/25 00:46:22;;;;;;;4.43;4.03;;;10.20;99.90;;;;;;5018464;28;20037;-37
2022/09/25 00:49:05;;;;;;;7.38;4.00;;;10.20;99.90;;;;;;5017320;28;20494;-42
2022/09/25 00:51:54;;;;;;;3.97;3.67;;;10.20;99.90;;;;;;5018015;28;20033;-38
2022/09/25 00:54:26;;;;;;;;;;;10.30;99.90;;;;;;5019214;28;20025;-36
2022/09/25 00:56:55;;;;;;;4.75;3.78;;;10.20;99.90;;;;;;5017276;28;19980;-38
2022/09/25 00:59:34;;;;;;;4.25;3.85;;;10.10;99.90;;;;;;5015855;28;20041;-41
2022/09/25 01:02:00;;;;;;;4.78;4.38;;;10.10;99.90;;;;;;5018812;28;20444;-42
2022/09/25 01:04:29;;;;;;;5.03;4.53;;;10.00;99.90;;;;;;5016941;28;20242;-43
2022/09/25 01:06:55;;;;;;;6.15;4.78;;;10.00;99.90;;;;;;5018941;28;20079;-42
2022/09/25 01:09:22;;;;;;;5.88;4.32;;;10.10;99.90;;;;;;5014498;28;20123;-41
2022/09/25 01:11:48;;;;;;;5.45;4.40;;;10.10;99.90;;;;;;5014196;28;20037;-40
2022/09/25 01:14:16;;;;;;;5.47;4.07;;;10.10;99.90;;;;;;5020579;28;20026;-36
2022/09/25 01:16:52;;;;;;;4.32;3.67;;;10.20;99.90;;;;;;5015258;28;20036;-40
2022/09/25 01:19:37;;;;;;;4.70;3.63;;;10.20;99.90;;;;;;5018341;28;20418;-42
2022/09/25 01:22:17;;;;;;;4.30;3.90;;;10.20;99.90;;;;;;5020222;28;20044;-40
2022/09/25 01:25:08;;;;;;;3.97;3.58;;;10.20;99.90;;;;;;5013238;28;20034;-41
2022/09/25 01:28:09;;;;;;;3.95;3.63;;;10.20;99.90;;;;;;5014099;28;20155;-42
2022/09/25 01:30:40;;;;;;;3.47;3.17;;;10.30;99.90;;;;;;5015323;28;20564;-41
2022/09/25 01:33:17;;;;;;;4.00;3.60;;;10.20;99.90;;;;;;5019947;28;20037;-41
2022/09/25 01:35:55;;;;;;;4.13;3.75;;;10.20;99.90;;;;;;5017216;28;20026;-40
2022/09/25 01:38:32;;;;;;;3.75;3.45;;;10.10;99.90;;;;;;5017228;28;20025;-42
2022/09/25 01:41:08;;;;;;;3.95;3.55;;;10.10;99.90;;;;;;5015430;28;20391;-38
2022/09/25 01:43:38;;;;;;;4.47;3.45;;;10.00;99.90;;;;;;5019900;28;20030;-42
2022/09/25 01:46:18;;;;;;;3.92;3.63;;;10.00;99.90;;;;;;5015611;28;20655;-41
2022/09/25 01:48:53;;;;;;;3.80;3.50;;;10.00;99.90;;;;;;5017487;28;20026;-39
2022/09/25 01:51:31;;;;;;;9.55;3.85;;;10.00;99.90;;;;;;5012852;28;20032;-38
2022/09/25 01:54:03;;;;;;;3.65;3.35;;;10.00;99.90;;;;;;5016231;28;20048;-37
2022/09/25 01:56:40;;;;;;;2.92;2.63;;;10.10;99.90;;;;;;5017823;28;20037;-43
2022/09/25 01:59:16;;;;;;;3.03;2.83;;;10.00;99.90;;;;;;5016756;28;20048;-39
2022/09/25 02:01:44;;;;;;;3.08;2.78;;;10.00;99.90;;;;;;5022174;28;20341;-41
2022/09/25 02:04:25;;;;;;;4.30;3.05;;;10.00;99.90;;;;;;5018286;28;20037;-42
2022/09/25 02:06:53;;;;;;;4.15;3.75;;;10.10;99.90;;;;;;5016101;28;20030;-38
2022/09/25 02:09:30;;;;;;;3.70;3.40;;;10.00;99.90;;;;;;5018833;28;20030;-37
2022/09/25 02:12:03;;;;;;;4.18;3.78;;;9.90;99.90;;;;;;5014156;28;20053;-40
2022/09/25 02:14:33;;;;;;;4.20;3.80;;;10.00;99.90;;;;;;5017105;28;20064;-38
2022/09/25 02:17:01;;;;;;;4.45;3.63;;;10.00;99.90;;;;;;5014900;28;20028;-42
2022/09/25 02:22:18;;;;;;;5.07;3.90;;;10.10;99.90;;;;;;5017190;28;19939;-40
2022/09/25 02:24:53;;;;;;;4.68;4.20;;;10.10;99.90;;;;;;5016274;28;20044;-37
2022/09/25 02:27:20;;;;;;;6.43;4.10;;;10.10;99.90;;;;;;5016378;28;21135;-42
2022/09/25 02:29:46;;;;;;;5.10;4.10;;;10.00;99.90;;;;;;5016683;28;20041;-39
2022/09/25 02:32:14;;;;;;;4.30;3.90;;;9.90;99.90;;;;;;5015723;28;20189;-40
2022/09/25 02:34:40;;;;;;;4.95;4.03;;;10.00;99.90;;;;;;5017613;28;20605;-38
2022/09/25 02:37:11;;;;;;;4.88;4.07;;;10.00;99.90;;;;;;5016934;28;20065;-42
2022/09/25 02:39:37;;;;;;;4.35;3.72;;;10.00;99.90;;;;;;5017050;28;20041;-39
2022/09/25 02:42:32;;;;;;;4.57;3.75;;;10.10;99.90;;;;;;5013718;28;20033;-41
2022/09/25 02:45:32;;;;;;;3.97;3.58;;;10.10;99.90;;;;;;5017064;28;20101;-40
2022/09/25 02:48:06;;;;;;;3.78;3.47;;;10.10;99.90;;;;;;5015350;28;20037;-43
2022/09/25 02:50:48;;;;;;;4.60;3.30;;;10.10;99.90;;;;;;5014728;28;20481;-37
2022/09/25 02:53:20;;;;;;;4.05;3.38;;;10.20;99.90;;;;;;5016586;28;20033;-40
2022/09/25 02:55:55;;;;;;;3.53;2.83;;;10.10;99.90;;;;;;5014557;28;20092;-36
2022/09/25 02:58:28;;;;;;;3.63;3.30;;;10.10;99.90;;;;;;5016334;28;20030;-42
2022/09/25 03:00:55;;;;;;;4.32;2.97;;;10.10;99.90;;;;;;5016730;28;21617;-38
2022/09/25 03:03:24;;;;;;;3.22;2.95;;;10.10;99.90;;;;;;5018017;28;20030;-41
2022/09/25 03:05:51;;;;;;;3.25;2.95;;;9.80;99.90;;;;;;5017335;28;20045;-41
2022/09/25 03:08:36;;;;;;;3.70;3.38;;;9.70;99.90;;;;;;5015258;28;20025;-41
2022/09/25 03:11:11;;;;;;;4.03;3.28;;;9.70;99.90;;;;;;5015635;28;20041;-39
2022/09/25 03:13:37;;;;;;;4.50;3.97;;;9.80;99.90;;;;;;5015912;28;20459;-41
2022/09/25 03:16:46;;;;;;;5.53;3.50;;;9.70;99.90;;;;;;5017124;28;20022;-38
2022/09/25 03:19:12;;;;;;;4.22;3.45;;;9.70;99.90;;;;;;5010013;28;20030;-41
2022/09/25 03:21:38;;;;;;;4.80;3.80;;;9.80;99.90;;;;;;5013661;28;21686;-39
2022/09/25 03:24:04;;;;;;;4.75;3.60;;;9.80;99.90;;;;;;5015634;28;20026;-40
2022/09/25 03:26:30;;;;;;;3.58;3.28;;;9.80;99.90;;;;;;5014352;28;20068;-38
2022/09/25 03:29:00;;;;;;;3.95;3.60;;;9.80;99.90;;;;;;5013730;28;20532;-41
2022/09/25 03:31:25;;;;;;;4.15;3.75;;;9.90;99.90;;;;;;5015590;28;20521;-38
2022/09/25 03:33:51;;;;;;;4.00;3.65;;;10.00;99.90;;;;;;5012871;28;20033;-37
2022/09/25 03:36:19;;;;;;;5.05;3.83;;;10.00;99.90;;;;;;5014518;28;20025;-37
2022/09/25 03:38:46;;;;;;;;;;;10.00;99.90;;;;;;5013268;28;20382;-40
2022/09/25 03:41:14;;;;;;;8.23;4.03;;;10.00;99.90;;;;;;5012789;28;19917;-41
2022/09/25 03:43:41;;;;;;;5.00;3.90;;;10.00;99.90;;;;;;5017288;28;20034;-42
2022/09/25 03:46:09;;;;;;;4.07;3.35;;;9.90;99.90;;;;;;5015062;28;20041;-41
2022/09/25 03:48:35;;;;;;;5.28;4.30;;;10.00;99.90;;;;;;5016711;28;20028;-41
2022/09/25 03:51:01;;;;;;;3.55;3.25;;;10.00;99.90;;;;;;5014686;28;20033;-37
2022/09/25 03:53:32;;;;;;;5.47;3.97;;;10.10;99.90;;;;;;5015045;28;20136;-37
2022/09/25 03:56:02;;;;;;;6.80;3.78;;;10.10;99.90;;;;;;5016721;28;20021;-43
2022/09/25 03:58:28;;;;;;;4.43;3.97;;;10.10;99.90;;;;;;5015564;28;20119;-42
2022/09/25 04:00:57;;;;;;;4.45;4.00;;;10.10;99.90;;;;;;5018239;28;20038;-37
2022/09/25 04:03:29;;;;;;;;;;;10.10;99.90;;;;;;5015690;28;20033;-36
2022/09/25 04:05:56;;;;;;;5.07;3.30;;;10.10;99.90;;;;;;5016078;28;23218;-43
2022/09/25 04:08:25;;;;;;;3.97;3.53;;;10.10;99.90;;;;;;5015970;28;20053;-35
2022/09/25 04:11:00;;;;;;;4.65;3.92;;;10.10;99.90;;;;;;5014330;28;20029;-40
2022/09/25 04:13:29;;;;;;;4.20;3.80;;;10.20;99.90;;;;;;5017380;28;20029;-37
2022/09/25 04:15:55;;;;;;;;;;;10.20;99.90;;;;;;5013948;28;20025;-39
2022/09/25 04:18:21;;;;;;;4.68;3.80;;;10.20;99.90;;;;;;5014048;28;20409;-40
2022/09/25 04:20:47;;;;;;;5.43;4.03;;;10.20;99.90;;;;;;5008117;28;20152;-38
2022/09/25 04:23:13;;;;;;;4.25;3.80;;;10.20;99.90;;;;;;5012371;28;20033;-38
2022/09/25 04:25:38;;;;;;;4.18;3.78;;;10.20;99.90;;;;;;5017836;28;20714;-39
2022/09/25 04:28:06;;;;;;;4.30;3.90;;;10.20;99.90;;;;;;5008953;28;20079;-36
2022/09/25 04:30:32;;;;;;;4.60;3.58;;;10.20;99.90;;;;;;5016097;28;20044;-42
2022/09/25 04:35:43;;;;;;;5.18;3.90;;;10.20;99.90;;;;;;5017619;28;20100;-41
2022/09/25 04:38:09;;;;;;;5.78;3.83;;;10.20;99.90;;;;;;5022154;28;20069;-38
2022/09/25 04:40:35;;;;;;;4.32;3.92;;;10.20;99.90;;;;;;5016380;28;20057;-41
2022/09/25 04:43:03;;;;;;;5.82;4.50;;;10.30;99.90;;;;;;5017749;28;20037;-40
2022/09/25 04:45:32;;;;;;;6.45;4.50;;;10.30;99.90;;;;;;5018781;28;20461;-42
2022/09/25 04:47:58;;;;;;;;;;;10.30;99.90;;;;;;5022939;28;20390;-42
2022/09/25 04:50:25;;;;;;;5.47;3.92;;;10.30;99.90;;;;;;5019789;28;19913;-39
2022/09/25 04:52:51;;;;;;;4.93;4.25;;;10.40;99.90;;;;;;5018835;28;20034;-38
2022/09/25 04:55:23;;;;;;;4.70;4.20;;;10.30;99.90;;;;;;5024378;28;20022;-41
2022/09/25 04:57:55;;;;;;;4.53;4.00;;;10.40;99.90;;;;;;5018820;28;20123;-41
2022/09/25 05:00:23;;;;;;;4.88;4.38;;;10.40;99.90;;;;;;5018885;28;20037;-41
2022/09/25 05:02:48;;;;;;;4.60;4.10;;;10.40;99.90;;;;;;5020876;28;20044;-39
2022/09/25 05:05:15;;;;;;;4.85;4.38;;;10.40;99.90;;;;;;5018532;28;20038;-40
2022/09/25 05:08:08;;;;;;;6.57;5.20;;;10.50;99.90;;;;;;5018098;28;20033;-39
2022/09/25 05:10:34;;;;;;;8.13;4.90;;;10.50;99.90;;;;;;5021327;28;20041;-41
2022/09/25 05:13:01;;;;;;;7.05;4.85;;;10.50;99.90;;;;;;5021705;28;20034;-43
2022/09/25 05:15:30;;;;;;;8.82;5.35;;;10.50;99.90;;;;;;5022249;28;20079;-43
2022/09/25 05:18:20;;;;;;;10.02;5.93;;;10.60;99.90;;;;;;5022553;28;20037;-42
2022/09/25 05:20:47;;;;;;;10.48;6.47;;;10.60;99.90;;;;;;5013154;28;20165;-40
2022/09/25 05:23:13;;;;;;;15.25;7.85;;;10.60;99.90;;;;;;5019908;28;20018;-42
2022/09/25 05:25:38;;;;;;;13.77;7.40;;;10.70;99.90;;;;;;5021472;28;20106;-42
2022/09/25 05:28:04;;;;;;;15.43;8.15;;;10.60;99.90;;;;;;5015494;28;20057;-40
2022/09/25 05:30:32;;;;;;;15.77;8.43;;;10.70;99.90;;;;;;5016147;28;20522;-40
2022/09/25 05:32:58;;;;;;;12.48;7.82;;;10.70;99.90;;;;;;5021975;28;20033;-39
2022/09/25 05:35:26;;;;;;;16.80;9.20;;;10.70;99.90;;;;;;5023247;28;20033;-41
2022/09/25 05:37:52;;;;;;;17.05;8.70;;;10.70;99.90;;;;;;5023848;28;20549;-41
2022/09/25 05:40:19;;;;;;;19.70;9.43;;;10.70;99.90;;;;;;5021621;28;20992;-40
2022/09/25 05:42:46;;;;;;;17.77;8.67;;;10.80;99.90;;;;;;5019095;28;20038;-42
2022/09/25 05:45:17;;;;;;;18.83;8.77;;;10.80;99.90;;;;;;5017215;28;20045;-40
2022/09/25 05:47:42;;;;;;;17.02;9.18;;;10.80;99.90;;;;;;5023333;28;20033;-37
2022/09/25 05:50:10;;;;;;;21.38;10.18;;;10.80;99.90;;;;;;5021217;28;20653;-38
2022/09/25 05:52:37;;;;;;;20.60;8.88;;;10.80;99.90;;;;;;5017786;28;20029;-37
2022/09/25 05:55:05;;;;;;;16.65;9.27;;;10.80;99.90;;;;;;5021843;28;20037;-43
2022/09/25 05:57:32;;;;;;;17.97;9.03;;;10.80;99.90;;;;;;5017673;28;20026;-38
2022/09/25 05:59:58;;;;;;;18.70;9.77;;;10.80;99.90;;;;;;5017975;28;20279;-37
2022/09/25 06:02:24;;;;;;;17.15;8.93;;;10.80;99.90;;;;;;5023290;28;20034;-40
2022/09/25 06:04:49;;;;;;;19.55;9.40;;;10.80;99.90;;;;;;5023495;28;20540;-41
2022/09/25 06:07:15;;;;;;;19.65;8.82;;;10.80;99.90;;;;;;5020248;28;20034;-40
2022/09/25 06:09:40;;;;;;;17.42;9.18;;;10.70;99.90;;;;;;5019620;28;20435;-40
2022/09/25 06:12:06;;;;;;;18.58;9.18;;;10.70;99.90;;;;;;5017329;28;20111;-36
2022/09/25 06:14:34;;;;;;;16.23;8.55;;;10.80;99.90;;;;;;5017349;28;20035;-42
2022/09/25 06:17:00;;;;;;;19.27;9.10;;;10.80;99.90;;;;;;5021757;28;20017;-37
2022/09/25 06:19:28;;;;;;;17.73;9.95;;;10.90;99.90;;;;;;5021472;28;20025;-39
2022/09/25 06:21:54;;;;;;;18.48;9.23;;;10.90;99.90;;;;;;5021051;28;20044;-37
2022/09/25 06:24:19;;;;;;;12.13;6.82;;;10.90;99.90;;;;;;5015677;28;20414;-38
2022/09/25 06:26:46;;;;;;;13.25;7.63;;;10.80;99.90;;;;;;5014351;28;20091;-41
2022/09/25 06:29:11;;;;;;;17.75;8.35;;;10.80;99.90;;;;;;5021228;28;20099;-39
2022/09/25 06:31:38;;;;;;;16.35;8.15;;;10.80;99.90;;;;;;5019012;28;20037;-42
2022/09/25 06:34:03;;;;;;;16.60;8.27;;;10.80;99.90;;;;;;5015789;28;20025;-39
2022/09/25 06:36:30;;;;;;;14.98;8.00;;;10.80;99.90;;;;;;5017393;28;20368;-42
2022/09/25 06:38:55;;;;;;;16.92;8.07;;;10.90;99.90;;;;;;5020383;28;20134;-41
2022/09/25 06:41:22;;;;;;;16.23;8.57;;;10.90;99.90;;;;;;5020781;28;20530;-37
2022/09/25 06:43:49;;;;;;;16.27;8.48;;;11.00;99.90;;;;;;5018492;28;20060;-38
2022/09/25 06:46:18;;;;;;;16.90;8.45;;;11.00;99.90;;;;;;5019925;28;20029;-43
2022/09/25 06:48:54;;;;;;;16.33;7.20;;;11.00;99.90;;;;;;5019732;28;20049;-42
2022/09/25 06:51:24;;;;;;;16.13;7.93;;;11.10;99.90;;;;;;5013724;28;20040;-42
2022/09/25 06:53:53;;;;;;;16.27;8.68;;;11.10;99.90;;;;;;5013903;28;20073;-40
2022/09/25 06:56:19;;;;;;;19.73;8.68;;;11.00;99.90;;;;;;5017657;28;20052;-40
2022/09/25 06:58:45;;;;;;;17.80;8.05;;;11.00;99.90;;;;;;5017934;28;20375;-40
2022/09/25 07:01:12;;;;;;;15.98;8.07;;;11.00;99.90;;;;;;5016932;28;20033;-41
2022/09/25 07:03:44;;;;;;;17.40;8.75;;;11.00;99.90;;;;;;5021067;28;20840;-38
2022/09/25 07:06:16;;;;;;;14.38;7.30;;;11.10;99.90;;;;;;5012514;28;20029;-38
2022/09/25 07:08:43;;;;;;;17.83;8.48;;;11.10;99.90;;;;;;5015069;28;21791;-42
2022/09/25 07:11:15;;;;;;;17.63;7.80;;;11.10;99.90;;;;;;5020229;28;20116;-41
2022/09/25 07:13:41;;;;;;;19.17;8.57;;;11.10;99.90;;;;;;5014398;28;20048;-39
2022/09/25 07:16:16;;;;;;;18.35;8.85;;;11.10;99.90;;;;;;5017762;28;20382;-41
2022/09/25 07:18:43;;;;;;;16.52;8.32;;;11.10;99.90;;;;;;5016027;28;20179;-41
2022/09/25 07:21:11;;;;;;;22.13;9.23;;;11.20;99.90;;;;;;5021136;28;20057;-37
2022/09/25 07:23:37;;;;;;;17.65;8.63;;;11.20;99.90;;;;;;5011987;28;20495;-37
2022/09/25 07:26:05;;;;;;;19.45;9.57;;;11.20;99.90;;;;;;5018279;28;20026;-40
2022/09/25 07:28:31;;;;;;;19.88;9.40;;;11.20;99.90;;;;;;5017892;28;20033;-40
2022/09/25 07:30:56;;;;;;;23.27;10.05;;;11.20;99.90;;;;;;5013200;28;20403;-41
2022/09/25 07:33:23;;;;;;;21.75;9.35;;;11.30;99.90;;;;;;5014672;28;20042;-41
2022/09/25 07:35:51;;;;;;;21.38;9.55;;;11.30;99.90;;;;;;5017791;28;20456;-40
2022/09/25 07:38:17;;;;;;;20.08;9.88;;;11.30;99.90;;;;;;5016046;28;20052;-41
2022/09/25 07:40:42;;;;;;;22.30;11.48;;;11.30;99.90;;;;;;5018498;28;20112;-41
2022/09/25 07:43:08;;;;;;;19.42;9.15;;;11.30;99.90;;;;;;5017809;28;22088;-42
2022/09/25 07:45:34;;;;;;;19.95;9.23;;;11.40;99.90;;;;;;5018606;28;20040;-41
2022/09/25 07:48:01;;;;;;;21.58;9.70;;;11.20;99.90;;;;;;5021515;28;20104;-43
2022/09/25 07:50:28;;;;;;;14.18;7.05;;;11.20;99.90;;;;;;5013004;28;20379;-40
2022/09/25 07:52:53;;;;;;;19.45;9.55;;;11.10;99.90;;;;;;5014070;28;20447;-42
2022/09/25 07:55:19;;;;;;;20.90;9.43;;;11.20;99.90;;;;;;5014656;28;20685;-37
2022/09/25 07:57:45;;;;;;;22.80;10.05;;;11.10;99.90;;;;;;5017743;28;20033;-41
2022/09/25 08:00:11;;;;;;;20.23;9.02;;;11.10;99.90;;;;;;5017351;28;22022;-41
2022/09/25 08:02:37;;;;;;;19.58;8.73;;;11.20;99.90;;;;;;5018855;28;20042;-38
2022/09/25 08:05:03;;;;;;;17.25;8.80;;;11.20;99.90;;;;;;5016643;28;20211;-41
2022/09/25 08:07:29;;;;;;;19.45;8.95;;;11.30;99.90;;;;;;5017736;28;20026;-40
2022/09/25 08:09:55;;;;;;;17.67;8.65;;;11.30;99.90;;;;;;5018662;28;20032;-39
2022/09/25 08:12:23;;;;;;;18.48;9.05;;;11.30;99.90;;;;;;5017395;28;20137;-40
2022/09/25 08:14:49;;;;;;;18.67;8.52;;;11.30;99.90;;;;;;5018436;28;20387;-39
2022/09/25 08:17:14;;;;;;;17.73;8.40;;;11.30;99.90;;;;;;5019581;28;20032;-39
2022/09/25 08:19:40;;;;;;;19.08;9.18;;;11.20;99.90;;;;;;5016473;28;20029;-42
2022/09/25 08:22:05;;;;;;;16.88;9.25;;;11.30;99.90;;;;;;5015784;28;20045;-43
2022/09/25 08:24:31;;;;;;;19.83;8.23;;;11.30;99.90;;;;;;5019358;28;20033;-40
2022/09/25 08:26:56;;;;;;;17.08;7.82;;;11.30;99.90;;;;;;5017519;28;20124;-38
2022/09/25 08:29:23;;;;;;;16.60;8.40;;;11.30;99.90;;;;;;5022054;28;20259;-41
2022/09/25 08:31:49;;;;;;;18.23;9.35;;;11.30;99.90;;;;;;5019317;28;20510;-41
2022/09/25 08:34:16;;;;;;;18.35;9.05;;;11.30;99.90;;;;;;5023068;28;20032;-41
2022/09/25 08:36:42;;;;;;;18.20;9.48;;;11.30;99.90;;;;;;5017250;28;20213;-43
2022/09/25 08:39:08;;;;;;;17.63;8.80;;;11.50;99.90;;;;;;5021783;28;20120;-40
2022/09/25 08:41:48;;;;;;;15.80;8.00;;;11.50;99.90;;;;;;5021084;28;20469;-39
2022/09/25 08:44:25;;;;;;;18.35;8.85;;;11.50;99.90;;;;;;5018144;28;20041;-41
2022/09/25 08:50:03;;;;;;;16.63;9.20;;;11.60;99.90;;;;;;5016616;28;21784;-40
2022/09/25 08:52:30;;;;;;;18.63;8.95;;;11.60;99.90;;;;;;5015918;28;20030;-42
2022/09/25 08:54:55;;;;;;;15.27;8.15;;;11.70;99.90;;;;;;5019056;28;20034;-38
2022/09/25 08:57:42;;;;;;;13.90;7.00;;;11.70;99.90;;;;;;5019255;28;20044;-38
2022/09/25 09:00:20;;;;;;;16.50;8.00;;;11.70;99.90;;;;;;5018629;28;20018;-36
2022/09/25 09:02:52;;;;;;;15.60;7.43;;;11.70;99.90;;;;;;5019162;28;20116;-41
2022/09/25 09:05:34;;;;;;;16.45;7.82;;;11.80;99.90;;;;;;5019054;28;20033;-41
2022/09/25 09:08:14;;;;;;;16.30;8.10;;;11.70;99.90;;;;;;5020441;28;20033;-41
2022/09/25 09:10:49;;;;;;;14.40;7.60;;;11.80;99.90;;;;;;5023494;28;20037;-40
2022/09/25 09:13:35;;;;;;;14.93;7.22;;;11.90;99.90;;;;;;5016766;28;20328;-37
2022/09/25 09:16:08;;;;;;;11.55;6.72;;;11.90;99.90;;;;;;5008629;28;20038;-39
2022/09/25 09:18:39;;;;;;;12.27;6.90;;;11.90;99.90;;;;;;5019122;28;20037;-40
2022/09/25 09:21:12;;;;;;;15.18;7.90;;;11.80;99.90;;;;;;5020817;28;20038;-40
2022/09/25 09:23:46;;;;;;;11.27;7.13;;;11.90;99.90;;;;;;5011980;28;20041;-41
2022/09/25 09:26:19;;;;;;;12.88;7.13;;;11.90;99.90;;;;;;5016333;28;20149;-39
2022/09/25 09:29:01;;;;;;;12.88;7.28;;;12.00;99.90;;;;;;5018522;28;20033;-37
2022/09/25 09:32:14;;;;;;;11.30;6.63;;;12.00;99.90;;;;;;5018648;28;20081;-42
2022/09/25 09:34:59;;;;;;;12.77;6.65;;;12.10;99.90;;;;;;5003442;28;20049;-39
2022/09/25 09:37:30;;;;;;;12.60;6.97;;;12.10;99.90;;;;;;5017578;28;20051;-43
2022/09/25 09:40:24;;;;;;;8.88;5.60;;;12.20;99.90;;;;;;5021525;28;20114;-42
2022/09/25 09:43:28;;;;;;;12.27;6.43;;;12.10;99.90;;;;;;5013562;28;20641;-39
2022/09/25 09:46:14;;;;;;;11.05;6.50;;;12.10;99.90;;;;;;5010055;28;20598;-42
2022/09/25 09:48:48;;;;;;;12.48;7.20;;;12.10;99.90;;;;;;5014765;28;20156;-39
2022/09/25 09:51:18;;;;;;;11.85;7.18;;;12.10;99.90;;;;;;5013033;28;20498;-41
2022/09/25 09:54:08;;;;;;;11.15;6.30;;;12.10;99.90;;;;;;5016444;28;20371;-41
2022/09/25 09:56:35;;;;;;;11.73;7.00;;;12.10;99.90;;;;;;5014149;28;20671;-38
2022/09/25 09:59:13;;;;;;;13.88;8.13;;;12.20;99.90;;;;;;5016352;28;20061;-41
2022/09/25 10:01:41;;;;;;;14.05;7.95;;;12.20;99.90;;;;;;5018004;28;20037;-42
2022/09/25 10:04:23;;;;;;;13.68;7.95;;;12.10;99.90;;;;;;5016398;28;20025;-41
2022/09/25 10:07:15;;;;;;;11.55;7.15;;;12.20;99.90;;;;;;5017299;28;20033;-37
2022/09/25 10:09:41;;;;;;;10.85;6.50;;;12.20;99.90;;;;;;5015321;28;20061;-40
2022/09/25 10:12:32;;;;;;;10.10;6.28;;;12.30;99.90;;;;;;5016672;28;20030;-42
2022/09/25 10:15:01;;;;;;;10.73;5.95;;;12.40;99.90;;;;;;5016294;28;20025;-43
2022/09/25 10:17:29;;;;;;;11.07;6.95;;;12.40;99.90;;;;;;5018743;28;20490;-37
2022/09/25 10:20:13;;;;;;;10.52;6.63;;;12.50;99.90;;;;;;5018098;28;20053;-41
2022/09/25 10:22:43;;;;;;;10.27;5.97;;;12.30;99.90;;;;;;5016654;28;20035;-41
2022/09/25 10:25:09;;;;;;;10.60;6.18;;;12.40;99.90;;;;;;5021094;28;20131;-37
2022/09/25 10:27:37;;;;;;;8.77;5.53;;;12.30;99.90;;;;;;5021317;28;20048;-42
2022/09/25 10:30:08;;;;;;;9.55;6.57;;;12.30;99.90;;;;;;5015884;28;20034;-41
2022/09/25 10:33:02;;;;;;;9.07;5.40;;;12.40;99.90;;;;;;5016294;28;20049;-38
2022/09/25 10:35:44;;;;;;;9.35;6.03;;;12.50;99.90;;;;;;5017168;28;21379;-42
2022/09/25 10:38:37;;;;;;;7.90;6.00;;;12.60;99.90;;;;;;5020312;28;20090;-37
2022/09/25 10:41:11;;;;;;;10.32;6.55;;;12.60;99.90;;;;;;5018932;28;20040;-43
2022/09/25 10:43:58;;;;;;;11.18;6.32;;;12.60;99.90;;;;;;5017708;28;20025;-43
2022/09/25 10:52:11;;;;;;;10.50;6.07;;;12.60;99.90;;;;;;5020023;28;20437;-42
2022/09/25 10:54:37;;;;;;;11.43;6.60;;;12.70;99.90;;;;;;5017556;28;20083;-42
2022/09/25 10:57:33;;;;;;;11.25;6.60;;;12.70;99.90;;;;;;5016526;28;20033;-39
2022/09/25 11:00:01;;;;;;;10.45;6.45;;;12.80;99.90;;;;;;5006999;28;20079;-39
2022/09/25 11:02:39;;;;;;;10.73;6.60;;;12.90;99.90;;;;;;5017169;28;20837;-40
2022/09/25 11:05:14;;;;;;;12.75;6.97;;;13.00;99.90;;;;;;5017878;28;20025;-43
2022/09/25 11:07:51;;;;;;;9.40;5.50;;;12.90;99.90;;;;;;5015354;28;20033;-35
2022/09/25 11:10:22;;;;;;;8.98;5.90;;;12.90;99.90;;;;;;5017866;28;20040;-42
2022/09/25 11:12:50;;;;;;;8.95;6.38;;;12.90;99.90;;;;;;5016206;28;20043;-35
2022/09/25 11:15:19;;;;;;;9.65;6.00;;;12.90;99.90;;;;;;5014994;28;20044;-41
2022/09/25 11:17:50;;;;;;;9.68;6.47;;;12.90;99.90;;;;;;5019732;28;20141;-39
2022/09/25 11:20:16;;;;;;;9.02;5.80;;;13.00;99.90;;;;;;5014586;28;20567;-42
2022/09/25 11:23:13;;;;;;;10.32;5.63;;;13.00;99.90;;;;;;5017784;28;21128;-37
2022/09/25 11:25:56;;;;;;;9.02;5.78;;;12.90;99.90;;;;;;5017080;28;20069;-41
2022/09/25 11:28:37;;;;;;;12.52;7.30;;;13.00;99.90;;;;;;5015015;28;20680;-35
2022/09/25 11:31:20;;;;;;;9.15;5.63;;;13.10;99.90;;;;;;5013827;28;20729;-41
2022/09/25 11:34:13;;;;;;;10.30;6.60;;;13.10;99.90;;;;;;5018150;28;20021;-39
2022/09/25 11:37:11;;;;;;;10.20;6.13;;;12.90;99.90;;;;;;4987535;28;20037;-38
2022/09/25 11:42:54;;;;;;;8.40;5.53;;;13.00;99.90;;;;;;5020443;28;20040;-41
2022/09/25 11:45:45;;;;;;;9.57;5.82;;;12.90;99.90;;;;;;5013339;28;20468;-42
2022/09/25 11:48:11;;;;;;;11.90;5.57;;;13.00;99.90;;;;;;4993802;28;20041;-42
2022/09/25 11:50:51;;;;;;;9.75;5.40;;;13.10;99.90;;;;;;5016107;28;20041;-40
2022/09/25 11:53:44;;;;;;;10.48;6.75;;;13.30;99.90;;;;;;5011374;28;20034;-39
2022/09/25 11:56:16;;;;;;;8.85;5.45;;;13.30;99.90;;;;;;5007494;28;20128;-41
2022/09/25 11:58:51;;;;;;;8.18;5.10;;;13.40;99.90;;;;;;5010002;28;20526;-41
2022/09/25 12:01:35;;;;;;;9.40;5.53;;;13.50;99.90;;;;;;5019866;28;20050;-42
2022/09/25 12:04:19;;;;;;;9.32;5.35;;;13.60;99.90;;;;;;5019608;28;20052;-37
2022/09/25 12:07:00;;;;;;;8.48;5.10;;;13.60;99.90;;;;;;5016946;28;20702;-40
2022/09/25 12:09:50;;;;;;;6.93;5.25;;;13.80;99.90;;;;;;5018196;28;20411;-37
2022/09/25 12:12:44;;;;;;;7.38;4.93;;;13.90;99.90;;;;;;5018661;28;20393;-36
2022/09/25 12:15:21;;;;;;;7.47;5.07;;;14.00;99.90;;;;;;5013858;28;20030;-42
2022/09/25 12:17:58;;;;;;;6.68;5.03;;;14.10;99.90;;;;;;5018011;28;20033;-38
2022/09/25 12:20:36;;;;;;;13.45;10.00;;;14.20;99.90;;;;;;5017477;28;20135;-36
2022/09/25 12:23:12;;;;;;;7.75;6.05;;;14.20;99.90;;;;;;5019225;28;20361;-39
2022/09/25 12:26:02;;;;;;;6.60;5.05;;;14.20;99.90;;;;;;5020419;28;20108;-37
2022/09/25 12:28:44;;;;;;;9.07;6.07;;;14.10;99.90;;;;;;5018473;28;20037;-42
2022/09/25 12:31:42;;;;;;;9.02;5.80;;;13.90;99.90;;;;;;5019735;28;20091;-37
2022/09/25 12:34:33;;;;;;;8.15;5.32;;;14.10;99.90;;;;;;5020236;28;20406;-41
2022/09/25 12:37:19;;;;;;;8.63;5.20;;;14.20;99.90;;;;;;5021556;28;20032;-40
2022/09/25 12:39:53;;;;;;;6.57;4.90;;;14.20;99.90;;;;;;5020396;28;20030;-41
2022/09/25 12:42:46;;;;;;;6.78;4.70;;;14.40;99.90;;;;;;5022459;28;20562;-40
2022/09/25 12:45:20;;;;;;;6.80;5.00;;;14.50;99.90;;;;;;5023165;28;20036;-38
2022/09/25 12:48:11;;;;;;;8.45;5.30;;;14.30;99.90;;;;;;5017847;28;20029;-38
2022/09/25 12:51:01;;;;;;;6.88;4.65;;;14.10;99.90;;;;;;5017395;28;20056;-43
2022/09/25 12:53:40;;;;;;;7.13;4.82;;;14.30;99.90;;;;;;5020560;28;20241;-40
2022/09/25 12:56:23;;;;;;;8.10;5.13;;;14.20;99.90;;;;;;5018757;28;20044;-39
2022/09/25 12:59:04;;;;;;;7.32;4.88;;;14.20;99.90;;;;;;5019995;28;20018;-41
2022/09/25 13:01:52;;;;;;;8.27;5.28;;;14.20;99.90;;;;;;5019263;28;20468;-39
2022/09/25 13:04:46;;;;;;;7.00;4.75;;;14.40;99.90;;;;;;5020921;28;20026;-42
2022/09/25 13:07:56;;;;;;;7.75;4.97;;;14.60;99.90;;;;;;5017447;28;20040;-41
2022/09/25 13:10:25;;;;;;;8.00;4.72;;;14.60;99.90;;;;;;4994065;28;20037;-41
2022/09/25 13:12:55;;;;;;;6.15;5.00;;;14.80;99.90;;;;;;5020162;28;20423;-41
2022/09/25 13:15:25;;;;;;;6.53;4.63;;;14.80;99.90;;;;;;5021488;28;20021;-40
2022/09/25 13:17:50;;;;;;;6.45;4.75;;;14.80;99.90;;;;;;5019229;28;20032;-41
2022/09/25 13:20:25;;;;;;;5.82;4.30;;;14.80;99.90;;;;;;5020094;28;20042;-42
2022/09/25 13:22:55;;;;;;;7.05;4.95;;;14.70;99.90;;;;;;5020313;28;20037;-42
2022/09/25 13:25:21;;;;;;;6.57;4.90;;;14.80;99.90;;;;;;5016628;28;20175;-41
2022/09/25 13:27:47;;;;;;;6.93;5.28;;;14.80;99.90;;;;;;5019871;28;20041;-43
2022/09/25 13:30:25;;;;;;;5.90;4.38;;;14.90;99.90;;;;;;5019453;28;20290;-37
2022/09/25 13:32:55;;;;;;;7.68;4.85;;;14.80;99.90;;;;;;5018810;28;20038;-36